METAR Data
IDs: Format: Raw Decoded Include TAF

Data at: 1054 UTC 26 Sep 2018

KCQB 261035Z AUTO 02007KT 10SM SCT070 SCT100 14/12 A3018 RMK AO2 T01450120
KCQB 261015Z AUTO 02007KT 350V050 10SM BKN070 14/12 A3017 RMK AO2 T01450123
KCQB 260955Z AUTO 03005KT 10SM SCT070 SCT080 SCT120 15/12 A3017 RMK AO2 T01450123
KCQB 260935Z AUTO 02008KT 10SM -RA SCT050 BKN080 BKN095 14/13 A3016 RMK AO2 T01450127
KCQB 260910Z AUTO 03009KT 7SM VCTSRA OVC065 15/13 A3015 RMK AO2 T01490128
KCQB 260855Z AUTO 02007KT 10SM -RA SCT045 OVC065 15/13 A3016 RMK AO2 T01530127
KCQB 260835Z AUTO 36008KT 7SM -VCTSRA SCT045 OVC060 15/13 A3016 RMK AO2 LTG DSNT E T01520130
KCQB 260815Z AUTO 00000KT 10SM -RA SCT043 OVC060 16/13 A3018 RMK AO2 LTG DSNT ALQDS T01610126
KCQB 260755Z AUTO 03007KT 10SM -RA OVC060 16/13 A3016 RMK AO2 LTG DSNT E SW AND W T01570130
KCQB 260735Z AUTO 03009G17KT 10SM -RA OVC060 17/12 A3016 RMK AO2 T01690121
KCQB 260715Z AUTO 01010KT 10SM OVC060 18/12 A3015 RMK AO2 LTG DSNT SW T01770120
KCQB 260655Z AUTO 02008G15KT 10SM OVC060 18/12 A3015 RMK AO2 T01800119
KCQB 260635Z AUTO 02007G15KT 10SM BKN060 BKN070 OVC110 18/12 A3015 RMK AO2 T01800122
KCQB 260615Z AUTO 02008G18KT 10SM OVC060 18/12 A3015 RMK AO2 T01820123
KCQB 260555Z AUTO 01012G18KT 10SM OVC050 18/12 A3015 RMK AO2 T01840124 10268 20183
KCQB 260535Z AUTO 01011G18KT 10SM BKN050 OVC060 18/13 A3015 RMK AO2 T01850125
KCQB 260515Z AUTO 36010G17KT 10SM BKN050 OVC060 19/13 A3014 RMK AO2 T01860126
KCQB 260455Z AUTO 01011G17KT 10SM BKN050 OVC085 19/13 A3013 RMK AO2 T01870127
KCQB 260435Z AUTO 36010G19KT 10SM BKN085 19/13 A3012 RMK AO2 T01880127
KCQB 260415Z AUTO 36013G18KT 10SM BKN085 19/13 A3011 RMK AO2 T01910133
KCQB 260355Z AUTO 36009G18KT 10SM CLR 19/14 A3011 RMK AO2 T01910137
KCQB 260335Z AUTO 36012G17KT 340V040 10SM CLR 19/14 A3010 RMK AO2 T01930138
KCQB 260315Z AUTO 36013G23KT 10SM SCT065 20/14 A3009 RMK AO2 T01970139
KCQB 260255Z AUTO 36011G18KT 10SM BKN065 20/15 A3008 RMK AO2 T02010146
KCQB 260235Z AUTO 01009G17KT 10SM OVC065 20/16 A3006 RMK AO2 T02050157
KCQB 260210Z AUTO 36010G21KT 10SM SCT065 21/16 A3005 RMK AO2 T02140162
KCQB 260155Z AUTO 36014G19KT 10SM CLR 22/17 A3003 RMK AO2 T02180168
KCQB 260135Z AUTO 36016G21KT 10SM CLR 22/17 A3001 RMK AO2 T02250172
KCQB 260115Z AUTO 01012G18KT 10SM CLR 23/18 A3000 RMK AO2 T02330182
KCQB 260055Z AUTO 36012G20KT 10SM SCT065 SCT080 24/19 A2998 RMK AO2 T02390186
KCQB 260035Z AUTO 34011KT 10SM SCT065 BKN080 25/19 A2997 RMK AO2 T02490190
KCQB 260015Z AUTO 35011G22KT 10SM BKN065 OVC080 26/19 A2995 RMK AO2 T02610189
KCQB 252355Z AUTO 00000KT 10SM BKN065 BKN080 27/19 A2993 RMK AO2 T02660193 10314 20266 403140186
KCQB 252335Z AUTO 20004KT 10SM SCT065 28/19 A2992 RMK AO2 T02810189
KCQB 252315Z AUTO 20004KT 10SM CLR 29/18 A2991 RMK AO2 T02890182
KCQB 252255Z AUTO 20005KT 10SM CLR 30/18 A2991 RMK AO2 T02970180
KCQB 252235Z AUTO 21008KT 10SM CLR 30/18 A2991 RMK AO2 T03040179
KCQB 252215Z AUTO 21006KT 10SM CLR 31/18 A2991 RMK AO2 T03060177
KCQB 252155Z AUTO 21008KT 10SM CLR 31/18 A2990 RMK AO2 T03080179
KCQB 252135Z AUTO 22009KT 10SM CLR 31/18 A2990 RMK AO2 T03090178
KCQB 252115Z AUTO 23005KT 10SM CLR 31/19 A2990 RMK AO2 T03120186
KCQB 252055Z AUTO 21010KT 10SM CLR 31/18 A2990 RMK AO2 T03090180
KCQB 252035Z AUTO 24009KT 10SM CLR 31/19 A2990 RMK AO2 T03080190
KCQB 252015Z AUTO 25011KT 10SM SCT050 31/18 A2991 RMK AO2 T03060179
KCQB 251955Z AUTO 24011KT 10SM CLR 31/19 A2991 RMK AO2 T03080190
KCQB 251935Z AUTO 23011G17KT 10SM CLR 31/19 A2991 RMK AO2 T03070189
KCQB 251915Z AUTO 21010KT 10SM SCT050 31/19 A2992 RMK AO2 T03090190
KCQB 251855Z AUTO 24010KT 10SM CLR 31/19 A2992 RMK AO2 T03060195
KCQB 251835Z AUTO 22011KT 10SM CLR 30/20 A2992 RMK AO2 T03020196
KCQB 251815Z AUTO 23012G15KT 10SM CLR 30/20 A2992 RMK AO2 T02970203
KCQB 251755Z AUTO 21010G17KT 10SM CLR 30/21 A2992 RMK AO2 T02980209 10299 20196
KCQB 251735Z AUTO 22011KT 10SM CLR 29/21 A2992 RMK AO2 T02910209
KCQB 251715Z AUTO 18012KT 10SM CLR 29/21 A2992 RMK AO2
KCQB 251655Z AUTO 18007KT 10SM CLR 28/21 A2992 RMK AO2 T02790210
KCQB 251635Z AUTO 19008KT 10SM CLR 27/21 A2994 RMK AO2 T02710210
KCQB 251615Z AUTO 19009KT 10SM SCT015 26/21 A2994 RMK AO2 T02620212
KCQB 251555Z AUTO 17008KT 120V190 10SM BKN013 BKN018 25/21 A2995 RMK AO2 T02540212
KCQB 251535Z AUTO 18009KT 10SM OVC011 25/21 A2994 RMK AO2 T02470214
KCQB 251515Z AUTO 18009KT 10SM OVC009 23/21 A2994 RMK AO2 T02340213
KCQB 251455Z AUTO 18008KT 10SM OVC009 22/21 A2994 RMK AO2 T02210210
KCQB 251435Z AUTO 18008KT 10SM OVC007 21/21 A2994 RMK AO2 T02140208
KCQB 251415Z AUTO 18006KT 10SM OVC005 21/21 A2994 RMK AO2 T02100206
KCQB 251355Z AUTO 16006KT 7SM OVC005 21/20 A2994 RMK AO2 T02070204
KCQB 251335Z AUTO 17005KT 7SM BR OVC003 20/20 A2994 RMK AO2 T02040202
KCQB 251315Z AUTO 16006KT 5SM BR OVC003 20/20 A2994 RMK AO2 T02010199
KCQB 251255Z AUTO 16004KT 4SM BR OVC003 20/20 A2993 RMK AO2 T01990198
KCQB 251235Z AUTO 16004KT 4SM BR OVC003 20/20 A2993 RMK AO2 T01980197
KCQB 251215Z AUTO 16005KT 4SM BR OVC003 20/20 A2993 RMK AO2 T01970196
KCQB 251155Z AUTO 15006KT 3SM BR OVC003 19/19 A2993 RMK AO2 T01950193 10200 20186
KCQB 251135Z AUTO 14003KT 2 1/2SM BR OVC003 19/19 A2993 RMK AO2 T01910190
KCQB 251115Z AUTO 14004KT 2SM BR OVC003 19/19 A2992 RMK AO2 T01920191
KCQB 251055Z AUTO 14003KT 1 1/4SM BR OVC003 19/19 A2992 RMK AO2 T01930192
KCQB 251035Z AUTO 14004KT 2 1/2SM BR OVC003 19/19 A2991 RMK AO2 T01950194
KCQB 251015Z AUTO 16004KT 3SM BR OVC003 20/20 A2991 RMK AO2 VIS 2V3 1/2 T02000199
KCQB 250955Z AUTO 17005KT 3SM BR OVC003 20/20 A2991 RMK AO2 T01990198
KCQB 250935Z AUTO 16005KT 1SM BR OVC003 20/20 A2990 RMK AO2 T01970196
KCQB 250915Z AUTO 15004KT 3 1/2SM BR OVC003 19/19 A2989 RMK AO2
KCQB 250855Z AUTO 15004KT 5SM BR OVC003 19/19 A2989 RMK AO2 T01920191
KCQB 250835Z AUTO 00000KT 3SM BR BKN003 19/19 A2989 RMK AO2 T01900189
KCQB 250815Z AUTO 14003KT 3/4SM BR OVC003 19/19 A2989 RMK AO2 T01880187
KCQB 250755Z AUTO 00000KT 3/4SM BR BKN003 19/19 A2989 RMK AO2 T01900188
KCQB 250735Z AUTO 15003KT 3SM BR CLR 19/19 A2989 RMK AO2 T01910189
KCQB 250715Z AUTO 00000KT 4SM BR CLR 19/19 A2989 RMK AO2 T01940192
KCQB 250655Z AUTO 17003KT 5SM BR CLR 19/19 A2989 RMK AO2 T01940192
KCQB 250635Z AUTO 00000KT 7SM CLR 20/19 A2989 RMK AO2 T01970194
KCQB 250615Z AUTO 18003KT 10SM CLR 20/20 A2989 RMK AO2 T01980195
KCQB 250555Z AUTO 18003KT 10SM CLR 20/20 A2989 RMK AO2 10236 20199
KCQB 250535Z AUTO 16005KT 10SM CLR 20/20 A2989 RMK AO2 T02010198
KCQB 250515Z AUTO 17004KT 10SM CLR 20/20 A2989 RMK AO2 T02030199
KCQB 250455Z AUTO 16004KT 10SM CLR 20/20 A2990 RMK AO2 T02030199
KCQB 250435Z AUTO 15003KT 10SM CLR 20/20 A2989 RMK AO2 T02040199
KCQB 250415Z AUTO 15004KT 10SM CLR 20/20 A2989 RMK AO2 T02050200
KCQB 250355Z AUTO 15003KT 10SM CLR 21/20 A2989 RMK AO2 T02070200
KCQB 250335Z AUTO 17003KT 10SM SCT050 21/20 A2989 RMK AO2 T02090202
KCQB 250315Z AUTO 17003KT 10SM BKN050 21/20 A2988 RMK AO2 T02110202
KCQB 250255Z AUTO 17004KT 10SM BKN050 21/20 A2988 RMK AO2 T02150202
KCQB 250235Z AUTO 17005KT 10SM BKN055 22/20 A2988 RMK AO2 T02180204
KCQB 250215Z AUTO 16005KT 10SM SCT028 BKN049 22/21 A2988 RMK AO2 T02180205
KCQB 250155Z AUTO 00000KT 10SM SCT023 SCT033 OVC049 22/21 A2987 RMK AO2 T02220208
KCQB 250135Z AUTO 00000KT 10SM OVC025 22/21 A2987 RMK AO2 T02250210
KCQB 250115Z AUTO 16003KT 10SM BKN027 BKN036 22/21 A2986 RMK AO2 T02220209
KCQB 250055Z AUTO 00000KT 10SM BKN027 BKN034 22/21 A2985 RMK AO2 T02220207
KCQB 250035Z AUTO 15003KT 10SM SCT025 SCT032 22/21 A2985 RMK AO2 T02220206
KCQB 250020Z AUTO 15003KT 10SM SCT032 23/21 A2984 RMK AO2 T02280207
KCQB 242355Z AUTO 15006KT 10SM SCT025 SCT043 SCT050 24/21 A2984 RMK AO2 T02380207 10270 20225 402700196
KCQB 242335Z AUTO 14007KT 10SM BKN023 BKN043 BKN055 25/21 A2983 RMK AO2 T02530208
KCQB 242315Z AUTO 15006KT 10SM SCT023 BKN028 BKN043 26/21 A2984 RMK AO2 T02590208
KCQB 242255Z AUTO 15009KT 10SM SCT021 BKN060 26/21 A2984 RMK AO2 T02600211